createdAt,value
2023-04-30T00:01:38.673Z,99619.06
2023-04-30T00:04:06.436Z,99631.38
2023-04-30T00:06:34.091Z,99635.09
2023-04-30T00:09:01.471Z,99635.41
2023-04-30T00:11:29.065Z,99631.59
2023-04-30T00:13:57.148Z,99628.13
2023-04-30T00:16:24.601Z,99627.94
2023-04-30T00:18:52.263Z,99631.88
2023-04-30T00:21:19.662Z,99635.72
2023-04-30T00:23:47.055Z,99635.91
2023-04-30T00:26:15.555Z,99639.94
2023-04-30T00:28:44.082Z,99632.44
2023-04-30T00:31:11.433Z,99635.44
2023-04-30T00:33:39.492Z,99637.78
2023-04-30T00:36:06.872Z,99635.00
2023-04-30T00:38:34.252Z,99643.31
2023-04-30T00:41:01.931Z,99643.41
2023-04-30T00:43:29.404Z,99641.34
2023-04-30T00:45:56.910Z,99640.47
2023-04-30T00:48:25.016Z,99645.81
2023-04-30T00:50:52.454Z,99638.25
2023-04-30T00:53:19.826Z,99632.66
2023-04-30T00:55:47.801Z,99624.22
2023-04-30T00:58:15.281Z,99631.44
2023-04-30T01:00:47.128Z,99619.50
2023-04-30T01:03:14.979Z,99626.31
2023-04-30T01:05:42.454Z,99626.94
2023-04-30T01:08:09.906Z,99630.22
2023-04-30T01:10:52.259Z,99619.25
2023-04-30T01:13:29.801Z,99622.59
2023-04-30T01:16:00.726Z,99630.00
2023-04-30T01:18:30.117Z,99626.50
2023-04-30T01:21:04.255Z,99635.53
2023-04-30T01:23:34.451Z,99633.91
2023-04-30T01:26:11.312Z,99630.88
2023-04-30T01:28:38.867Z,99629.19
2023-04-30T01:31:18.161Z,99624.44
2023-04-30T01:33:45.684Z,99620.72
2023-04-30T01:36:35.220Z,99630.03
2023-04-30T01:39:11.712Z,99632.72
2023-04-30T01:41:51.045Z,99631.25
2023-04-30T01:44:34.378Z,99628.16
2023-04-30T01:47:07.859Z,99628.56
2023-04-30T01:49:48.191Z,99630.59
2023-04-30T01:52:19.048Z,99637.22
2023-04-30T01:54:51.622Z,99640.94
2023-04-30T01:57:32.347Z,99640.91
2023-04-30T01:59:59.698Z,99646.69
2023-04-30T02:02:27.545Z,99645.44
2023-04-30T02:04:55.257Z,99644.59
2023-04-30T02:07:41.211Z,99649.97
2023-04-30T02:10:09.446Z,99644.63
2023-04-30T02:12:36.872Z,99641.94
2023-04-30T02:15:04.940Z,99642.97
2023-04-30T02:17:33.008Z,99658.91
2023-04-30T02:20:00.491Z,99648.38
2023-04-30T02:22:27.896Z,99648.88
2023-04-30T02:24:55.895Z,99647.59
2023-04-30T02:27:23.902Z,99649.09
2023-04-30T02:29:51.473Z,99652.41
2023-04-30T02:32:19.177Z,99648.25
2023-04-30T02:34:46.596Z,99651.47
2023-04-30T02:37:13.971Z,99651.59
2023-04-30T02:39:41.878Z,99655.53
2023-04-30T02:42:09.297Z,99659.03
2023-04-30T02:44:36.746Z,99662.94
2023-04-30T02:47:04.835Z,99668.25
2023-04-30T02:49:33.326Z,99661.69
2023-04-30T02:52:01.059Z,99660.34
2023-04-30T02:54:28.793Z,99670.28
2023-04-30T02:56:56.772Z,99669.50
2023-04-30T02:59:24.148Z,99680.34
2023-04-30T03:01:51.803Z,99681.31
2023-04-30T03:04:19.197Z,99684.59
2023-04-30T03:06:46.673Z,99688.63
2023-04-30T03:09:15.255Z,99681.91
2023-04-30T03:11:42.628Z,99678.25
2023-04-30T03:14:10.008Z,99670.41
2023-04-30T03:16:37.758Z,99665.84
2023-04-30T03:19:05.184Z,99666.88
2023-04-30T03:21:32.730Z,99667.03
2023-04-30T03:24:00.405Z,99673.91
2023-04-30T03:26:27.995Z,99673.41
2023-04-30T03:28:55.854Z,99682.88
2023-04-30T03:31:24.135Z,99695.25
2023-04-30T03:33:51.564Z,99687.16
2023-04-30T03:36:18.945Z,99683.84
2023-04-30T03:38:46.626Z,99683.63
2023-04-30T03:41:13.985Z,99689.19
2023-04-30T03:43:41.411Z,99681.56
2023-04-30T03:46:09.174Z,99681.00
2023-04-30T03:48:36.604Z,99682.25
2023-04-30T03:51:04.451Z,99691.13
2023-04-30T03:53:32.094Z,99686.25
2023-04-30T03:55:59.549Z,99685.41
2023-04-30T03:58:27.347Z,99688.91
2023-04-30T04:00:55.038Z,99683.56
2023-04-30T04:03:23.173Z,99682.56
2023-04-30T04:05:50.565Z,99693.97
2023-04-30T04:08:18.344Z,99695.22
2023-04-30T04:10:45.991Z,99710.75
2023-04-30T04:13:13.367Z,99711.56
2023-04-30T04:15:40.802Z,99716.09
2023-04-30T04:18:08.698Z,99718.37
2023-04-30T04:20:36.351Z,99715.53
2023-04-30T04:23:03.894Z,99721.41
2023-04-30T04:25:33.473Z,99718.63
2023-04-30T04:28:00.862Z,99725.78
2023-04-30T04:30:28.252Z,99728.78
2023-04-30T04:32:56.514Z,99725.81
2023-04-30T04:35:23.904Z,99730.44
2023-04-30T04:37:51.321Z,99736.19
2023-04-30T04:40:18.910Z,99743.38
2023-04-30T04:42:48.607Z,99736.69
2023-04-30T04:45:16.233Z,99738.44
2023-04-30T04:47:44.038Z,99745.16
2023-04-30T04:50:11.468Z,99745.84
2023-04-30T04:52:39.244Z,99741.75
2023-04-30T04:55:07.367Z,99755.44
2023-04-30T04:57:34.753Z,99756.34
2023-04-30T05:00:02.278Z,99767.56
2023-04-30T05:02:30.110Z,99765.44
2023-04-30T05:04:57.643Z,99761.97
2023-04-30T05:07:25.008Z,99759.59
2023-04-30T05:09:53.189Z,99769.19
2023-04-30T05:12:21.056Z,99773.16
2023-04-30T05:14:49.487Z,99768.03
2023-04-30T05:17:17.192Z,99781.50
2023-04-30T05:19:45.294Z,99785.78
2023-04-30T05:22:12.646Z,99787.72
2023-04-30T05:24:40.386Z,99779.81
2023-04-30T05:27:08.064Z,99793.34
2023-04-30T05:29:35.492Z,99767.47
2023-04-30T05:32:03.312Z,99765.53
2023-04-30T05:34:30.767Z,99782.22
2023-04-30T05:36:58.147Z,99787.25
2023-04-30T05:39:25.750Z,99794.63
2023-04-30T05:41:53.559Z,99784.06
2023-04-30T05:44:21.286Z,99790.88
2023-04-30T05:46:48.909Z,99793.72
2023-04-30T05:49:16.285Z,99812.72
2023-04-30T05:51:43.607Z,99800.72
2023-04-30T05:54:11.258Z,99817.63
2023-04-30T05:56:38.582Z,99811.59
2023-04-30T05:59:05.929Z,99802.34
2023-04-30T06:01:33.820Z,99798.22
2023-04-30T06:04:01.689Z,99781.91
2023-04-30T06:06:29.092Z,99800.25
2023-04-30T06:08:56.461Z,99808.16
2023-04-30T06:11:25.805Z,99802.72
2023-04-30T06:13:53.147Z,99790.53
2023-04-30T06:16:20.600Z,99776.19
2023-04-30T06:18:48.271Z,99766.84
2023-04-30T06:21:15.607Z,99754.28
2023-04-30T06:23:42.945Z,99745.75
2023-04-30T06:26:10.667Z,99767.41
2023-04-30T06:28:38.014Z,99748.34
2023-04-30T06:31:05.420Z,99770.22
2023-04-30T06:33:33.122Z,99753.72
2023-04-30T06:36:00.481Z,99772.63
2023-04-30T06:38:27.846Z,99768.12
2023-04-30T06:40:55.504Z,99764.25
2023-04-30T06:43:22.859Z,99761.72
2023-04-30T06:45:50.380Z,99791.25
2023-04-30T06:48:18.001Z,99766.25
2023-04-30T06:50:45.484Z,99769.75
2023-04-30T06:53:12.937Z,99774.31
2023-04-30T06:55:44.877Z,99775.41
2023-04-30T06:58:12.451Z,99774.78
2023-04-30T07:00:39.769Z,99753.47
2023-04-30T07:03:08.083Z,99780.13
2023-04-30T07:05:35.493Z,99782.50
2023-04-30T07:08:03.600Z,99782.50
2023-04-30T07:10:31.688Z,99780.75
2023-04-30T07:12:59.348Z,99771.56
2023-04-30T07:15:26.778Z,99775.75
2023-04-30T07:17:55.298Z,99778.22
2023-04-30T07:20:22.724Z,99764.63
2023-04-30T07:22:50.108Z,99784.47
2023-04-30T07:25:17.835Z,99779.50
2023-04-30T07:27:45.382Z,99778.75
2023-04-30T07:30:12.745Z,99754.41
2023-04-30T07:32:41.586Z,99760.38
2023-04-30T07:35:09.394Z,99748.22
2023-04-30T07:37:37.182Z,99758.47
2023-04-30T07:40:09.229Z,99778.78
2023-04-30T07:42:36.602Z,99779.31
2023-04-30T07:45:04.825Z,99757.59
2023-04-30T07:47:32.540Z,99750.53
2023-04-30T07:49:59.999Z,99768.69
2023-04-30T07:52:27.423Z,99764.53
2023-04-30T07:54:55.044Z,99790.19
2023-04-30T07:57:22.392Z,99803.81
2023-04-30T07:59:51.364Z,99757.03
2023-04-30T08:02:21.201Z,99764.87
2023-04-30T08:04:49.331Z,99757.63
2023-04-30T08:07:16.842Z,99760.31
2023-04-30T08:09:44.211Z,99759.88
2023-04-30T08:12:11.829Z,99747.41
2023-04-30T08:14:39.185Z,99738.12
2023-04-30T08:17:06.770Z,99757.22
2023-04-30T08:19:34.364Z,99765.50
2023-04-30T08:22:01.753Z,99772.53
2023-04-30T08:24:29.115Z,99763.97
2023-04-30T08:26:56.734Z,99770.06
2023-04-30T08:29:24.122Z,99751.00
2023-04-30T08:31:52.233Z,99781.59
2023-04-30T08:34:19.880Z,99769.06
2023-04-30T08:36:47.221Z,99756.44
2023-04-30T08:39:14.579Z,99749.97
2023-04-30T08:41:42.533Z,99759.16
2023-04-30T08:44:09.901Z,99751.69
2023-04-30T08:46:37.818Z,99739.34
2023-04-30T08:49:05.533Z,99743.63
2023-04-30T08:51:33.435Z,99719.78
2023-04-30T08:54:00.810Z,99751.06
2023-04-30T08:56:31.253Z,99732.44
2023-04-30T08:58:58.620Z,99727.84
2023-04-30T09:01:26.095Z,99748.94
2023-04-30T09:03:53.856Z,99743.69
2023-04-30T09:06:21.346Z,99753.28
2023-04-30T09:08:49.477Z,99753.91
2023-04-30T09:11:23.762Z,99759.84
2023-04-30T09:13:52.739Z,99758.88
2023-04-30T09:16:21.347Z,99747.97
2023-04-30T09:18:48.807Z,99758.44
2023-04-30T09:21:16.177Z,99768.41
2023-04-30T09:23:56.844Z,99756.13
2023-04-30T09:26:34.947Z,99741.44
2023-04-30T09:29:07.816Z,99742.06
2023-04-30T09:31:38.899Z,99748.47
2023-04-30T09:34:06.732Z,99729.84
2023-04-30T09:36:34.326Z,99750.13
2023-04-30T09:39:17.404Z,99720.41
2023-04-30T09:41:45.014Z,99732.91
2023-04-30T09:44:31.532Z,99720.78
2023-04-30T09:46:59.368Z,99724.09
2023-04-30T09:49:27.384Z,99717.50
2023-04-30T09:51:56.570Z,99717.59
2023-04-30T09:54:31.942Z,99708.69
2023-04-30T09:57:01.521Z,99747.53
2023-04-30T09:59:31.181Z,99724.59
2023-04-30T10:02:02.572Z,99718.94
2023-04-30T10:04:37.712Z,99731.34
2023-04-30T10:07:15.426Z,99726.75
2023-04-30T10:09:57.398Z,99731.41
2023-04-30T10:12:27.719Z,99721.31
2023-04-30T10:14:57.424Z,99707.91
2023-04-30T10:17:27.319Z,99725.22
2023-04-30T10:19:57.311Z,99719.28
2023-04-30T10:22:24.662Z,99727.09
2023-04-30T10:24:52.021Z,99707.56
2023-04-30T10:27:19.633Z,99708.41
2023-04-30T10:29:47.466Z,99732.34
2023-04-30T10:32:14.874Z,99702.75
2023-04-30T10:34:51.825Z,99718.13
2023-04-30T10:37:24.304Z,99731.59
2023-04-30T10:39:51.945Z,99721.13
2023-04-30T10:42:19.355Z,99708.06
2023-04-30T10:44:46.884Z,99724.63
2023-04-30T10:47:14.498Z,99744.47
2023-04-30T10:49:48.092Z,99724.28
2023-04-30T10:52:16.522Z,99724.50
2023-04-30T10:54:49.932Z,99719.47
2023-04-30T10:57:18.386Z,99735.19
2023-04-30T11:00:14.606Z,99743.75
2023-04-30T11:02:44.183Z,99733.25
2023-04-30T11:05:18.937Z,99736.56
2023-04-30T11:07:50.513Z,99722.84
2023-04-30T11:10:21.687Z,99708.75
2023-04-30T11:12:52.513Z,99722.75
2023-04-30T11:15:42.426Z,99711.25
2023-04-30T11:18:10.180Z,99717.59
2023-04-30T11:20:42.069Z,99714.41
2023-04-30T11:23:19.539Z,99715.59
2023-04-30T11:25:49.455Z,99713.88
2023-04-30T11:28:22.925Z,99735.03
2023-04-30T11:30:57.703Z,99725.31
2023-04-30T11:33:26.810Z,99730.56
2023-04-30T11:35:55.938Z,99717.59
2023-04-30T11:38:26.915Z,99721.88
2023-04-30T11:40:55.081Z,99723.31
2023-04-30T11:43:26.835Z,99727.97
2023-04-30T11:46:08.501Z,99727.53
2023-04-30T11:48:37.872Z,99728.66
2023-04-30T11:51:18.614Z,99720.31
2023-04-30T11:53:47.075Z,99725.91
2023-04-30T11:56:14.433Z,99712.88
2023-04-30T11:58:41.866Z,99715.72
2023-04-30T12:01:10.125Z,99742.13
2023-04-30T12:03:56.332Z,99712.78
2023-04-30T12:06:27.644Z,99714.06
2023-04-30T12:08:55.984Z,99716.06
2023-04-30T12:11:26.785Z,99729.38
2023-04-30T12:14:00.838Z,99727.37
2023-04-30T12:16:28.735Z,99722.12
2023-04-30T12:18:56.153Z,99732.47
2023-04-30T12:21:23.542Z,99719.19
2023-04-30T12:23:51.245Z,99727.09
2023-04-30T12:26:18.616Z,99718.81
2023-04-30T12:28:49.726Z,99717.44
2023-04-30T12:31:18.114Z,99727.59
2023-04-30T12:33:53.954Z,99725.25
2023-04-30T12:36:21.640Z,99705.59
2023-04-30T12:38:48.996Z,99705.72
2023-04-30T12:41:17.518Z,99701.78
2023-04-30T12:43:45.510Z,99705.94
2023-04-30T12:46:12.964Z,99712.63
2023-04-30T12:48:46.625Z,99696.16
2023-04-30T12:51:19.511Z,99707.72
2023-04-30T12:53:47.021Z,99693.94
2023-04-30T12:56:16.347Z,99704.00
2023-04-30T12:58:49.623Z,99709.38
2023-04-30T13:01:18.721Z,99687.41
2023-04-30T13:03:46.214Z,99674.69
2023-04-30T13:06:13.948Z,99669.12
2023-04-30T13:08:54.045Z,99670.56
2023-04-30T13:11:26.301Z,99684.88
2023-04-30T13:13:57.542Z,99675.94
2023-04-30T13:16:25.413Z,99677.94
2023-04-30T13:18:53.779Z,99660.94
2023-04-30T13:21:21.338Z,99657.37
2023-04-30T13:23:53.495Z,99656.38
2023-04-30T13:26:23.458Z,99655.69
2023-04-30T13:28:51.201Z,99665.84
2023-04-30T13:31:18.617Z,99655.56
2023-04-30T13:33:46.369Z,99646.50
2023-04-30T13:36:13.703Z,99650.66
2023-04-30T13:38:41.621Z,99654.88
2023-04-30T13:41:09.345Z,99652.13
2023-04-30T13:43:41.462Z,99650.09
2023-04-30T13:46:10.004Z,99670.75
2023-04-30T13:48:37.407Z,99670.00
2023-04-30T13:51:04.820Z,99670.72
2023-04-30T13:53:32.465Z,99662.59
2023-04-30T13:55:59.805Z,99656.00
2023-04-30T13:58:27.469Z,99660.09
2023-04-30T14:00:55.162Z,99665.03
2023-04-30T14:03:23.055Z,99660.59
2023-04-30T14:05:50.927Z,99662.56
2023-04-30T14:08:18.295Z,99664.91
2023-04-30T14:10:45.945Z,99671.34
2023-04-30T14:13:13.566Z,99650.37
2023-04-30T14:15:40.917Z,99653.44
2023-04-30T14:18:08.780Z,99672.75
2023-04-30T14:20:36.330Z,99666.81
2023-04-30T14:23:03.676Z,99662.22
2023-04-30T14:25:31.541Z,99653.84
2023-04-30T14:27:58.999Z,99653.56
2023-04-30T14:30:26.514Z,99651.09
2023-04-30T14:32:54.205Z,99655.75
2023-04-30T14:35:21.558Z,99651.91
2023-04-30T14:37:48.931Z,99645.56
2023-04-30T14:40:16.612Z,99666.94
2023-04-30T14:42:44.291Z,99654.25
2023-04-30T14:45:11.768Z,99654.50
2023-04-30T14:47:39.405Z,99648.13
2023-04-30T14:50:06.924Z,99649.78
2023-04-30T14:52:34.578Z,99663.50
2023-04-30T14:55:03.236Z,99659.47
2023-04-30T14:57:30.676Z,99693.25
2023-04-30T14:59:59.486Z,99662.66
2023-04-30T15:02:27.247Z,99668.22
2023-04-30T15:04:54.664Z,99667.13
2023-04-30T15:07:22.021Z,99659.53
2023-04-30T15:09:49.623Z,99665.53
2023-04-30T15:12:16.999Z,99667.63
2023-04-30T15:14:44.848Z,99655.91
2023-04-30T15:17:12.470Z,99660.16
2023-04-30T15:19:39.916Z,99664.09
2023-04-30T15:22:07.528Z,99668.41
2023-04-30T15:24:36.238Z,99665.84
2023-04-30T15:27:04.400Z,99652.31
2023-04-30T15:29:31.794Z,99663.38
2023-04-30T15:31:59.802Z,99673.81
2023-04-30T15:34:27.322Z,99677.12
2023-04-30T15:36:54.650Z,99657.66
2023-04-30T15:39:22.358Z,99677.47
2023-04-30T15:41:49.719Z,99689.78
2023-04-30T15:44:17.034Z,99698.91
2023-04-30T15:46:44.665Z,99700.09
2023-04-30T15:49:12.142Z,99717.91
2023-04-30T15:51:39.490Z,99711.81
2023-04-30T15:54:07.481Z,99715.34
2023-04-30T15:56:35.752Z,99711.59
2023-04-30T15:59:03.162Z,99720.97
2023-04-30T16:01:30.900Z,99722.50
2023-04-30T16:04:00.415Z,99737.25
2023-04-30T16:06:29.249Z,99734.09
2023-04-30T16:08:56.703Z,99727.88
2023-04-30T16:11:24.440Z,99727.44
2023-04-30T16:13:52.107Z,99741.16
2023-04-30T16:16:19.606Z,99739.31
2023-04-30T16:18:47.278Z,99735.88
2023-04-30T16:21:14.685Z,99736.19
2023-04-30T16:23:42.518Z,99737.13
2023-04-30T16:26:10.143Z,99737.03
2023-04-30T16:28:37.492Z,99736.00
2023-04-30T16:31:04.894Z,99745.03
2023-04-30T16:33:32.524Z,99746.22
2023-04-30T16:36:00.176Z,99749.41
2023-04-30T16:38:27.578Z,99744.09
2023-04-30T16:40:55.184Z,99746.78
2023-04-30T16:43:22.565Z,99742.03
2023-04-30T16:45:50.093Z,99738.88
2023-04-30T16:48:17.735Z,99741.00
2023-04-30T16:50:45.087Z,99745.25
2023-04-30T16:53:12.467Z,99746.59
2023-04-30T16:55:40.068Z,99742.94
2023-04-30T16:58:07.433Z,99748.38
2023-04-30T17:00:34.835Z,99755.69
2023-04-30T17:03:02.565Z,99758.34
2023-04-30T17:05:30.955Z,99755.00
2023-04-30T17:07:58.311Z,99766.53
2023-04-30T17:10:27.280Z,99766.72
2023-04-30T17:12:57.633Z,99773.75
2023-04-30T17:15:28.041Z,99772.91
2023-04-30T17:17:56.959Z,99777.69
2023-04-30T17:20:24.355Z,99777.81
2023-04-30T17:22:53.329Z,99771.03
2023-04-30T17:25:21.074Z,99776.19
2023-04-30T17:27:48.493Z,99774.38
2023-04-30T17:30:15.885Z,99770.31
2023-04-30T17:32:44.183Z,99772.19
2023-04-30T17:35:11.572Z,99773.97
2023-04-30T17:37:38.963Z,99772.81
2023-04-30T17:40:07.674Z,99774.00
2023-04-30T17:42:35.199Z,99776.25
2023-04-30T17:45:02.560Z,99787.13
2023-04-30T17:47:31.642Z,99789.28
2023-04-30T17:49:59.737Z,99787.87
2023-04-30T17:52:27.184Z,99788.84
2023-04-30T17:54:55.005Z,99790.75
2023-04-30T17:57:22.447Z,99785.84
2023-04-30T17:59:49.789Z,99789.88
2023-04-30T18:02:17.487Z,99786.66
2023-04-30T18:04:45.373Z,99787.50
2023-04-30T18:07:12.697Z,99794.22
2023-04-30T18:09:40.064Z,99794.19
2023-04-30T18:12:07.722Z,99803.53
2023-04-30T18:14:35.126Z,99798.75
2023-04-30T18:17:02.676Z,99802.44
2023-04-30T18:19:30.310Z,99802.53
2023-04-30T18:21:57.733Z,99806.84
2023-04-30T18:24:28.523Z,99806.12
2023-04-30T18:26:56.188Z,99815.97
2023-04-30T18:29:23.706Z,99817.81
2023-04-30T18:31:51.114Z,99819.59
2023-04-30T18:34:18.736Z,99816.22
2023-04-30T18:36:46.099Z,99815.75
2023-04-30T18:39:13.469Z,99822.94
2023-04-30T18:41:41.150Z,99817.34
2023-04-30T18:44:09.713Z,99827.22
2023-04-30T18:46:37.112Z,99835.25
2023-04-30T18:49:05.521Z,99842.19
2023-04-30T18:51:32.901Z,99852.66
2023-04-30T18:54:00.405Z,99858.84
2023-04-30T18:56:28.005Z,99859.88
2023-04-30T18:58:55.336Z,99867.50
2023-04-30T19:01:24.392Z,99855.09
2023-04-30T19:03:52.127Z,99858.94
2023-04-30T19:06:19.523Z,99863.31
2023-04-30T19:08:47.002Z,99860.12
2023-04-30T19:11:15.072Z,99860.41
2023-04-30T19:13:42.457Z,99866.53
2023-04-30T19:16:09.854Z,99875.72
2023-04-30T19:18:39.577Z,99878.56
2023-04-30T19:21:07.209Z,99878.50
2023-04-30T19:23:35.659Z,99878.31
2023-04-30T19:26:03.433Z,99871.13
2023-04-30T19:28:30.892Z,99880.47
2023-04-30T19:30:58.477Z,99881.72
2023-04-30T19:33:26.257Z,99877.75
2023-04-30T19:35:54.637Z,99873.47
2023-04-30T19:38:22.152Z,99878.81
2023-04-30T19:40:52.000Z,99886.66
2023-04-30T19:43:19.907Z,99894.31
2023-04-30T19:45:49.768Z,99893.47
2023-04-30T19:48:17.575Z,99890.81
2023-04-30T19:50:45.494Z,99892.88
2023-04-30T19:53:13.080Z,99892.69
2023-04-30T19:55:40.798Z,99892.47
2023-04-30T19:58:08.196Z,99897.84
2023-04-30T20:00:44.056Z,99898.25
2023-04-30T20:03:12.466Z,99899.06
2023-04-30T20:05:39.926Z,99899.47
2023-04-30T20:08:07.765Z,99895.53
2023-04-30T20:10:36.335Z,99894.31
2023-04-30T20:13:04.493Z,99899.50
2023-04-30T20:15:31.973Z,99908.13
2023-04-30T20:17:59.899Z,99912.81
2023-04-30T20:20:28.416Z,99913.44
2023-04-30T20:22:56.249Z,99911.44
2023-04-30T20:25:29.430Z,99910.63
2023-04-30T20:27:56.998Z,99914.75
2023-04-30T20:30:24.609Z,99914.22
2023-04-30T20:32:52.015Z,99915.66
2023-04-30T20:35:19.484Z,99920.44
2023-04-30T20:37:49.696Z,99923.38
2023-04-30T20:40:17.081Z,99921.53
2023-04-30T20:42:44.467Z,99920.13
2023-04-30T20:45:12.130Z,99918.06
2023-04-30T20:47:39.843Z,99929.91
2023-04-30T20:50:10.421Z,99938.13
2023-04-30T20:52:38.043Z,99943.62
2023-04-30T20:55:05.710Z,99938.47
2023-04-30T20:57:33.046Z,99934.25
2023-04-30T21:00:00.774Z,99941.97
2023-04-30T21:02:28.259Z,99948.31
2023-04-30T21:04:55.920Z,99957.66
2023-04-30T21:07:23.509Z,99957.91
2023-04-30T21:09:50.917Z,99958.06
2023-04-30T21:12:18.256Z,99958.00
2023-04-30T21:14:45.918Z,99962.41
2023-04-30T21:17:14.453Z,99958.22
2023-04-30T21:19:41.783Z,99967.06
2023-04-30T21:22:09.404Z,99968.72
2023-04-30T21:24:36.936Z,99974.09
2023-04-30T21:27:05.393Z,99985.34
2023-04-30T21:29:33.957Z,99985.66
2023-04-30T21:32:01.771Z,99990.25
2023-04-30T21:34:32.700Z,99993.09
2023-04-30T21:37:00.334Z,100002.22
2023-04-30T21:39:27.654Z,100004.66
2023-04-30T21:41:55.031Z,100010.75
2023-04-30T21:44:22.664Z,100014.41
2023-04-30T21:46:50.838Z,100016.94
2023-04-30T21:49:18.352Z,100021.59
2023-04-30T21:51:46.052Z,100018.53
2023-04-30T21:54:13.412Z,100018.00
2023-04-30T21:56:41.156Z,100021.00
2023-04-30T21:59:08.750Z,100024.41
2023-04-30T22:01:36.155Z,100024.56
2023-04-30T22:04:04.640Z,100024.84
2023-04-30T22:06:35.030Z,100030.87
2023-04-30T22:09:02.482Z,100031.13
2023-04-30T22:11:30.176Z,100028.59
2023-04-30T22:13:57.727Z,100028.81
2023-04-30T22:16:25.124Z,100026.84
2023-04-30T22:18:52.758Z,100038.28
2023-04-30T22:21:20.115Z,100027.75
2023-04-30T22:23:47.648Z,100035.91
2023-04-30T22:26:15.386Z,100031.84
2023-04-30T22:28:42.756Z,100038.44
2023-04-30T22:31:10.115Z,100035.12
2023-04-30T22:33:37.805Z,100040.47
2023-04-30T22:36:06.195Z,100042.41
2023-04-30T22:38:33.762Z,100042.12
2023-04-30T22:41:01.461Z,100035.69
2023-04-30T22:43:30.378Z,100040.63
2023-04-30T22:45:58.682Z,100040.47
2023-04-30T22:48:27.701Z,100042.53
2023-04-30T22:50:55.511Z,100041.31
2023-04-30T22:53:22.976Z,100049.78
2023-04-30T22:55:50.691Z,100047.69
2023-04-30T22:58:18.350Z,100045.19
2023-04-30T23:00:45.855Z,100048.72
2023-04-30T23:03:13.560Z,100049.97
2023-04-30T23:05:40.968Z,100049.59
2023-04-30T23:08:08.342Z,100054.41
2023-04-30T23:10:35.970Z,100041.88
2023-04-30T23:13:03.328Z,100054.84
2023-04-30T23:15:30.735Z,100045.75
2023-04-30T23:18:00.330Z,100056.22
2023-04-30T23:20:28.417Z,100054.25
2023-04-30T23:22:56.198Z,100050.00
2023-04-30T23:25:23.861Z,100049.78
2023-04-30T23:27:51.633Z,100051.97
2023-04-30T23:30:19.007Z,100054.63
2023-04-30T23:32:46.648Z,100051.78
2023-04-30T23:35:14.020Z,100053.91
2023-04-30T23:37:41.377Z,100055.31
2023-04-30T23:40:09.828Z,100055.25
2023-04-30T23:42:37.204Z,100053.81
2023-04-30T23:45:04.844Z,100056.94
2023-04-30T23:47:36.040Z,100055.31
2023-04-30T23:50:04.060Z,100051.88
2023-04-30T23:52:31.987Z,100057.87
2023-04-30T23:54:59.859Z,100054.94
2023-04-30T23:57:28.118Z,100057.78
2023-04-30T23:59:56.432Z,100051.63
